Time;durP1;ratioP1;P1;durP2;ratioP2;P2;SDS_P1;SDS_P2;PMS_P1;PMS_P2;Temp;Humidity;BMP_temperature;BMP_pressure;BME280_temperature;BME280_humidity;BME280_pressure;Samples;Min_cycle;Max_cycle;Signal;HPM_P1;HPM_P2
2023/02/20 00:02:20;;;;;;;11.33;7.90;;;8.10;99.90;;;;;;5016390;28;20534;-79
2023/02/20 00:04:47;;;;;;;10.40;7.80;;;8.10;99.90;;;;;;5016339;28;20447;-79
2023/02/20 00:07:14;;;;;;;13.93;10.03;;;8.10;99.90;;;;;;5015917;28;21026;-78
2023/02/20 00:09:41;;;;;;;16.30;9.33;;;8.10;99.90;;;;;;5016295;28;20482;-78
2023/02/20 00:12:07;;;;;;;10.50;8.47;;;8.10;99.90;;;;;;5016344;28;20978;-79
2023/02/20 00:14:34;;;;;;;15.20;9.40;;;8.00;99.90;;;;;;5016504;28;20452;-78
2023/02/20 00:17:02;;;;;;;13.00;9.20;;;8.00;99.90;;;;;;5016186;28;20877;-78
2023/02/20 00:19:30;;;;;;;14.30;8.80;;;8.00;99.90;;;;;;5015893;28;20463;-78
2023/02/20 00:21:57;;;;;;;15.47;8.90;;;7.90;99.90;;;;;;5016251;28;20443;-78
2023/02/20 00:24:23;;;;;;;12.33;9.13;;;8.00;99.90;;;;;;5015936;28;20452;-79
2023/02/20 00:26:52;;;;;;;11.83;8.90;;;7.90;99.90;;;;;;5015732;28;20468;-79
2023/02/20 00:29:22;;;;;;;12.07;9.87;;;7.90;99.90;;;;;;5015473;28;20482;-78
2023/02/20 00:31:52;;;;;;;15.63;9.00;;;7.90;99.90;;;;;;5015602;28;20455;-78
2023/02/20 00:34:20;;;;;;;11.57;9.63;;;7.90;99.90;;;;;;5015541;28;20533;-79
2023/02/20 00:36:47;;;;;;;13.50;10.60;;;7.90;99.90;;;;;;5015709;28;20482;-78
2023/02/20 00:39:14;;;;;;;10.70;8.33;;;7.90;99.90;;;;;;5016306;28;20462;-78
2023/02/20 00:41:42;;;;;;;12.70;9.77;;;8.00;99.90;;;;;;5015737;28;20447;-78
2023/02/20 00:44:09;;;;;;;11.87;8.87;;;7.90;99.90;;;;;;5015707;28;20862;-78
2023/02/20 00:46:36;;;;;;;14.80;8.43;;;7.90;99.90;;;;;;5015344;28;20572;-79
2023/02/20 00:49:03;;;;;;;15.10;9.00;;;7.90;99.90;;;;;;5015413;28;20529;-78
2023/02/20 00:51:32;;;;;;;13.10;8.97;;;7.90;99.90;;;;;;5015407;28;20459;-78
2023/02/20 00:53:59;;;;;;;11.33;9.30;;;7.90;99.90;;;;;;5015185;28;20482;-78
2023/02/20 00:56:25;;;;;;;15.43;9.90;;;7.90;99.90;;;;;;5015490;28;20486;-78
2023/02/20 00:58:52;;;;;;;15.00;9.27;;;7.90;99.90;;;;;;5015263;28;20455;-78
2023/02/20 01:01:19;;;;;;;16.63;8.77;;;7.90;99.90;;;;;;5015315;28;20452;-78
2023/02/20 01:03:45;;;;;;;14.97;10.67;;;7.90;99.90;;;;;;5015468;28;20462;-78
2023/02/20 01:06:12;;;;;;;18.10;9.57;;;7.90;99.90;;;;;;5021846;28;20483;-78
2023/02/20 01:08:40;;;;;;;17.23;8.90;;;7.90;99.90;;;;;;5026436;28;20451;-78
2023/02/20 01:11:07;;;;;;;12.17;8.60;;;7.90;99.90;;;;;;5021128;28;20479;-79
2023/02/20 01:13:34;;;;;;;10.27;8.13;;;7.90;99.90;;;;;;5015712;28;20458;-78
2023/02/20 01:16:01;;;;;;;11.33;9.10;;;7.90;99.90;;;;;;5015420;28;20479;-78
2023/02/20 01:18:27;;;;;;;14.80;8.30;;;7.90;99.90;;;;;;5014864;28;20461;-78
2023/02/20 01:20:54;;;;;;;12.37;10.57;;;7.90;99.90;;;;;;5015128;28;20447;-78
2023/02/20 01:23:21;;;;;;;12.83;10.83;;;7.90;99.90;;;;;;5014804;28;20443;-78
2023/02/20 01:25:49;;;;;;;13.10;8.70;;;7.90;99.90;;;;;;5014913;28;20471;-79
2023/02/20 01:28:16;;;;;;;13.40;9.90;;;7.90;99.90;;;;;;5014769;28;20467;-78
2023/02/20 01:30:43;;;;;;;15.50;10.37;;;7.90;99.90;;;;;;5014809;28;20486;-78
2023/02/20 01:33:10;;;;;;;13.03;9.43;;;7.90;99.90;;;;;;5014627;28;20458;-79
2023/02/20 01:35:36;;;;;;;15.10;11.50;;;7.90;99.90;;;;;;5014497;28;20490;-78
2023/02/20 01:38:05;;;;;;;12.90;9.93;;;7.90;99.90;;;;;;5014660;28;20456;-78
2023/02/20 01:40:33;;;;;;;14.13;9.70;;;7.90;99.90;;;;;;5014737;28;20447;-78
2023/02/20 01:43:02;;;;;;;16.47;10.17;;;7.90;99.90;;;;;;5014775;28;20455;-78
2023/02/20 01:45:34;;;;;;;12.73;10.53;;;7.90;99.90;;;;;;5014444;28;20466;-79
2023/02/20 01:48:01;;;;;;;15.33;11.47;;;7.90;99.90;;;;;;5015038;28;20432;-78
2023/02/20 01:50:32;;;;;;;20.10;10.77;;;7.90;99.90;;;;;;5014752;28;20495;-78
2023/02/20 01:53:02;;;;;;;17.63;11.83;;;7.90;99.90;;;;;;5014568;28;20534;-78
2023/02/20 01:55:32;;;;;;;18.20;11.97;;;7.80;99.90;;;;;;5013949;28;20452;-79
2023/02/20 01:58:05;;;;;;;19.03;12.27;;;7.70;99.90;;;;;;5014872;28;20452;-78
2023/02/20 02:00:33;;;;;;;15.13;11.33;;;7.70;99.90;;;;;;5014072;28;20943;-78
2023/02/20 02:03:03;;;;;;;16.83;12.03;;;7.70;99.90;;;;;;5014028;28;20975;-78
2023/02/20 02:05:31;;;;;;;17.70;11.87;;;7.60;99.90;;;;;;5013663;28;20456;-78
2023/02/20 02:08:00;;;;;;;16.90;11.90;;;7.60;99.90;;;;;;5014369;28;20455;-78
2023/02/20 02:10:32;;;;;;;22.43;13.13;;;7.60;99.90;;;;;;5013965;28;20495;-78
2023/02/20 02:12:59;;;;;;;19.77;13.47;;;7.60;99.90;;;;;;5014164;28;20436;-78
2023/02/20 02:15:27;;;;;;;16.23;11.37;;;7.60;99.90;;;;;;5014194;28;20455;-79
2023/02/20 02:18:07;;;;;;;16.47;11.37;;;7.70;99.90;;;;;;5013614;28;20971;-78
2023/02/20 02:21:04;;;;;;;16.40;11.37;;;7.70;99.90;;;;;;5014476;28;20438;-78
2023/02/20 02:24:03;;;;;;;18.20;10.80;;;7.70;99.90;;;;;;5015180;28;20777;-78
2023/02/20 02:26:53;;;;;;;19.47;11.53;;;7.70;99.90;;;;;;5010266;28;20991;-79
2023/02/20 02:29:44;;;;;;;14.50;10.63;;;7.70;99.90;;;;;;5014262;28;20467;-79
2023/02/20 02:32:32;;;;;;;18.83;12.10;;;7.70;99.90;;;;;;5011733;28;20458;-79
2023/02/20 02:35:24;;;;;;;16.33;11.30;;;7.70;99.90;;;;;;5014407;28;20934;-78
2023/02/20 02:38:01;;;;;;;17.90;10.37;;;7.70;99.90;;;;;;5014326;28;20431;-78
2023/02/20 02:40:38;;;;;;;15.67;10.47;;;7.70;99.90;;;;;;5014562;28;20443;-79
2023/02/20 02:43:11;;;;;;;19.60;11.33;;;7.70;99.90;;;;;;5014274;28;20427;-78
2023/02/20 02:45:45;;;;;;;15.93;10.33;;;7.70;99.90;;;;;;5014053;28;20467;-79
2023/02/20 02:48:19;;;;;;;17.20;11.20;;;7.70;99.90;;;;;;5014798;28;20451;-78
2023/02/20 02:50:48;;;;;;;18.80;11.37;;;7.70;99.90;;;;;;5014786;28;20463;-78
2023/02/20 02:53:16;;;;;;;17.33;10.83;;;7.70;99.90;;;;;;5014129;28;20451;-78
2023/02/20 02:55:43;;;;;;;15.53;9.93;;;7.70;99.90;;;;;;5014403;28;20475;-78
2023/02/20 02:58:11;;;;;;;15.03;10.10;;;7.70;99.90;;;;;;5014051;28;20455;-78
2023/02/20 03:00:42;;;;;;;15.93;9.40;;;7.70;99.90;;;;;;5013905;28;20857;-78
2023/02/20 03:03:13;;;;;;;19.80;9.80;;;7.80;99.90;;;;;;5014029;28;20439;-78
2023/02/20 03:05:46;;;;;;;14.20;8.90;;;7.80;99.90;;;;;;5013908;28;20491;-78
2023/02/20 03:08:29;;;;;;;15.20;8.80;;;7.80;99.90;;;;;;5017509;28;20927;-78
2023/02/20 03:10:59;;;;;;;17.80;9.97;;;7.80;99.90;;;;;;5018427;28;20525;-78
2023/02/20 03:16:18;;;;;;;19.20;8.20;;;7.80;99.90;;;;;;5018466;28;20959;-79
2023/02/20 03:18:48;;;;;;;14.23;8.33;;;7.80;99.90;;;;;;5018852;28;20451;-78
2023/02/20 03:21:18;;;;;;;13.73;7.50;;;7.80;99.90;;;;;;5019273;28;20454;-78
2023/02/20 03:23:53;;;;;;;12.97;8.17;;;7.90;99.90;;;;;;5018882;28;20451;-78
2023/02/20 03:26:29;;;;;;;12.77;7.90;;;7.80;99.90;;;;;;5018554;28;20470;-80
2023/02/20 03:29:01;;;;;;;13.97;7.80;;;7.80;99.90;;;;;;5018106;28;20926;-78
2023/02/20 03:31:33;;;;;;;13.77;8.13;;;7.70;99.90;;;;;;5018144;28;20478;-78
2023/02/20 03:45:22;;;;;;;10.60;6.53;;;7.70;99.90;;;;;;5017675;28;20497;-79
2023/02/20 03:47:52;;;;;;;10.67;6.50;;;7.60;99.90;;;;;;5017684;28;20939;-78
2023/02/20 03:53:04;;;;;;;14.50;8.00;;;7.50;99.90;;;;;;5018670;28;20403;-79
2023/02/20 03:55:33;;;;;;;11.90;6.77;;;7.60;99.90;;;;;;5018725;28;20974;-79
2023/02/20 03:58:05;;;;;;;14.57;6.40;;;7.60;99.90;;;;;;5017687;28;20501;-79
2023/02/20 04:00:36;;;;;;;14.50;6.67;;;7.60;99.90;;;;;;5017841;28;20802;-79
2023/02/20 04:03:10;;;;;;;10.27;5.47;;;7.60;99.90;;;;;;5017556;28;20436;-78
2023/02/20 04:05:43;;;;;;;11.63;5.90;;;7.60;99.90;;;;;;5017134;28;20489;-80
2023/02/20 04:08:13;;;;;;;8.23;5.47;;;7.60;99.90;;;;;;5018168;28;20448;-79
2023/02/20 04:10:45;;;;;;;9.40;5.57;;;7.60;99.90;;;;;;5017300;28;20474;-79
2023/02/20 04:13:14;;;;;;;11.00;5.60;;;7.50;99.90;;;;;;5017985;28;20809;-79
2023/02/20 04:15:41;;;;;;;11.20;4.60;;;7.50;99.90;;;;;;5017313;28;20475;-80
2023/02/20 04:18:13;;;;;;;11.33;5.40;;;7.50;99.90;;;;;;5017161;28;20455;-79
2023/02/20 04:20:40;;;;;;;12.70;6.57;;;7.50;99.90;;;;;;5017608;28;20444;-79
2023/02/20 04:23:13;;;;;;;14.40;6.43;;;7.60;99.90;;;;;;5017290;28;20443;-80
2023/02/20 04:25:45;;;;;;;7.73;4.67;;;7.50;99.90;;;;;;5016887;28;20479;-80
2023/02/20 04:28:13;;;;;;;10.60;5.43;;;7.50;99.90;;;;;;5017316;28;20439;-79
2023/02/20 04:30:40;;;;;;;8.20;4.93;;;7.60;99.90;;;;;;5017213;28;20466;-79
2023/02/20 04:33:07;;;;;;;7.93;4.97;;;7.60;99.90;;;;;;5016946;28;20451;-79
2023/02/20 04:35:34;;;;;;;12.40;5.37;;;7.60;99.90;;;;;;5016884;28;20464;-80
2023/02/20 04:38:01;;;;;;;8.10;4.60;;;7.60;99.90;;;;;;5017418;28;20456;-80
2023/02/20 04:40:28;;;;;;;7.20;4.17;;;7.60;99.90;;;;;;5016696;28;20948;-80
2023/02/20 04:42:56;;;;;;;15.37;5.40;;;7.50;99.90;;;;;;5016780;28;20455;-79
2023/02/20 04:45:23;;;;;;;9.37;4.13;;;7.60;99.90;;;;;;5016838;28;20457;-80
2023/02/20 04:47:49;;;;;;;8.00;4.87;;;7.50;99.90;;;;;;5017122;28;20474;-79
2023/02/20 04:50:20;;;;;;;10.30;3.90;;;7.60;99.90;;;;;;5016506;28;20445;-79
2023/02/20 04:52:47;;;;;;;16.97;4.63;;;7.60;99.90;;;;;;5016462;28;20440;-79
2023/02/20 04:55:14;;;;;;;9.07;4.30;;;7.60;99.90;;;;;;5017008;28;20451;-80
2023/02/20 04:57:41;;;;;;;9.30;4.07;;;7.60;99.90;;;;;;5016962;28;20482;-79
2023/02/20 05:00:12;;;;;;;8.00;4.30;;;7.50;99.90;;;;;;5016919;28;20428;-79
2023/02/20 05:02:39;;;;;;;11.20;4.20;;;7.50;99.90;;;;;;5016508;28;20908;-79
2023/02/20 05:05:14;;;;;;;11.07;4.93;;;7.40;99.90;;;;;;5016851;28;20474;-79
2023/02/20 05:07:40;;;;;;;9.10;4.57;;;7.30;99.90;;;;;;5016068;28;20483;-79
2023/02/20 05:10:08;;;;;;;7.10;4.37;;;7.20;99.90;;;;;;5015428;28;20428;-78
2023/02/20 05:12:34;;;;;;;14.17;5.07;;;7.20;99.90;;;;;;5014749;28;20586;-77
2023/02/20 05:15:02;;;;;;;8.87;4.83;;;7.20;99.90;;;;;;5014512;28;20451;-77
2023/02/20 05:17:31;;;;;;;10.33;4.23;;;7.20;99.90;;;;;;5014852;28;20500;-77
2023/02/20 05:19:57;;;;;;;8.53;4.00;;;7.10;99.90;;;;;;5014666;28;20624;-78
2023/02/20 05:22:23;;;;;;;8.63;4.90;;;7.00;99.90;;;;;;5015183;28;20443;-78
2023/02/20 05:24:51;;;;;;;8.70;4.30;;;7.00;99.90;;;;;;5015086;28;20455;-77
2023/02/20 05:27:20;;;;;;;10.47;4.67;;;6.90;99.90;;;;;;5022079;28;20712;-78
2023/02/20 05:29:47;;;;;;;14.80;4.80;;;6.90;99.90;;;;;;5029396;28;20432;-77
2023/02/20 05:32:15;;;;;;;11.20;4.10;;;6.80;99.90;;;;;;5021588;28;20495;-78
2023/02/20 05:34:43;;;;;;;11.70;4.93;;;6.80;99.90;;;;;;5015914;28;20459;-77
2023/02/20 05:37:12;;;;;;;10.17;4.70;;;6.80;99.90;;;;;;5015813;28;20477;-78
2023/02/20 05:39:38;;;;;;;7.13;4.73;;;6.80;99.90;;;;;;5015772;28;20927;-78
2023/02/20 05:42:06;;;;;;;8.67;5.57;;;6.80;99.90;;;;;;5015341;28;20458;-79
2023/02/20 05:44:33;;;;;;;12.63;5.17;;;6.80;99.90;;;;;;5015081;28;20447;-78
2023/02/20 05:46:59;;;;;;;9.23;4.70;;;6.80;99.90;;;;;;5015181;28;20843;-79
2023/02/20 05:49:26;;;;;;;9.13;5.70;;;6.80;99.90;;;;;;5015045;28;20463;-78
2023/02/20 05:51:57;;;;;;;12.33;5.47;;;6.80;99.90;;;;;;5014440;28;20491;-78
2023/02/20 05:54:24;;;;;;;12.33;5.23;;;6.80;99.90;;;;;;5014867;28;20458;-78
2023/02/20 05:56:52;;;;;;;10.60;5.53;;;6.80;99.90;;;;;;5014785;28;20475;-79
2023/02/20 05:59:22;;;;;;;9.73;5.70;;;6.80;99.90;;;;;;5019293;28;20450;-79
2023/02/20 06:01:51;;;;;;;12.97;6.40;;;6.70;99.90;;;;;;5018243;28;20431;-79
2023/02/20 06:04:18;;;;;;;14.00;6.70;;;6.70;99.90;;;;;;5017079;28;20447;-79
2023/02/20 06:06:45;;;;;;;9.30;5.70;;;6.70;99.90;;;;;;5016396;28;20474;-79
2023/02/20 06:09:15;;;;;;;13.47;7.00;;;6.70;99.90;;;;;;5016459;28;20451;-79
2023/02/20 06:11:47;;;;;;;12.10;6.73;;;6.70;99.90;;;;;;5015976;28;20881;-79
2023/02/20 06:14:16;;;;;;;15.10;5.63;;;6.70;99.90;;;;;;5016143;28;20919;-79
2023/02/20 06:16:43;;;;;;;15.13;6.73;;;6.70;99.90;;;;;;5016265;28;20484;-80
2023/02/20 06:19:10;;;;;;;10.00;6.83;;;6.70;99.90;;;;;;5015688;28;20463;-79
2023/02/20 06:21:39;;;;;;;11.30;7.93;;;6.60;99.90;;;;;;5016097;28;20458;-79
2023/02/20 06:24:07;;;;;;;12.80;8.23;;;6.60;99.90;;;;;;5015650;28;20550;-79
2023/02/20 06:26:40;;;;;;;12.50;7.73;;;6.60;99.90;;;;;;5015436;28;21018;-79
2023/02/20 06:29:06;;;;;;;9.30;7.67;;;6.60;99.90;;;;;;5016541;28;20444;-79
2023/02/20 06:31:33;;;;;;;9.93;7.97;;;6.60;99.90;;;;;;5015980;28;20491;-79
2023/02/20 06:34:02;;;;;;;17.20;10.77;;;6.70;99.90;;;;;;5015104;28;20455;-78
2023/02/20 06:36:31;;;;;;;18.67;8.83;;;6.70;99.90;;;;;;5013353;28;20988;-78
2023/02/20 06:38:58;;;;;;;16.03;9.50;;;6.70;99.90;;;;;;5013985;28;20443;-78
2023/02/20 06:41:25;;;;;;;13.60;10.03;;;6.70;99.90;;;;;;5016153;28;20459;-77
2023/02/20 06:43:54;;;;;;;11.50;9.57;;;6.70;99.90;;;;;;5017864;28;20451;-77
2023/02/20 06:46:21;;;;;;;16.13;10.90;;;6.60;99.90;;;;;;5017700;28;20482;-77
2023/02/20 06:48:50;;;;;;;20.73;13.40;;;6.60;99.90;;;;;;5018109;28;20440;-75
2023/02/20 06:51:17;;;;;;;25.67;12.20;;;6.50;99.90;;;;;;5018413;28;20827;-77
2023/02/20 06:53:44;;;;;;;28.00;15.70;;;6.50;99.90;;;;;;5018367;28;20805;-77
2023/02/20 06:56:18;;;;;;;22.33;14.10;;;6.50;99.90;;;;;;5018099;28;20467;-77
2023/02/20 06:58:46;;;;;;;25.03;14.83;;;6.50;99.90;;;;;;5018956;28;20527;-76
2023/02/20 07:01:14;;;;;;;20.77;15.23;;;6.50;99.90;;;;;;5020378;28;20467;-76
2023/02/20 07:03:41;;;;;;;18.83;14.67;;;6.40;99.90;;;;;;5009291;28;20443;-76
2023/02/20 07:06:08;;;;;;;22.53;16.50;;;6.40;99.90;;;;;;5030286;28;20486;-77
2023/02/20 07:08:34;;;;;;;24.53;16.10;;;6.40;99.90;;;;;;5053984;28;20461;-77
2023/02/20 07:11:01;;;;;;;26.23;17.03;;;6.40;99.90;;;;;;5046867;28;20472;-77
2023/02/20 07:13:28;;;;;;;26.73;17.53;;;6.50;99.90;;;;;;5039353;28;20435;-77
2023/02/20 07:15:55;;;;;;;25.90;15.97;;;6.50;99.90;;;;;;5038757;28;20477;-77
2023/02/20 07:18:23;;;;;;;24.60;14.83;;;6.50;99.90;;;;;;5038059;28;20441;-77
2023/02/20 07:20:52;;;;;;;27.93;15.67;;;6.50;99.90;;;;;;5037017;28;20919;-77
2023/02/20 07:23:18;;;;;;;26.83;18.10;;;6.50;99.90;;;;;;5037436;28;20945;-77
2023/02/20 07:25:48;;;;;;;23.47;16.77;;;6.40;99.90;;;;;;5037593;28;20478;-77
2023/02/20 07:28:16;;;;;;;25.93;17.73;;;6.50;99.90;;;;;;5036987;28;20925;-77
2023/02/20 07:30:42;;;;;;;34.37;18.40;;;6.50;99.90;;;;;;5037664;28;20453;-78
2023/02/20 07:33:10;;;;;;;25.37;19.10;;;6.60;99.90;;;;;;5037431;28;20513;-76
2023/02/20 07:35:38;;;;;;;25.27;17.00;;;6.60;99.90;;;;;;5037898;28;20477;-77
2023/02/20 07:38:05;;;;;;;22.40;16.37;;;6.70;99.90;;;;;;5036987;28;20954;-76
2023/02/20 07:40:32;;;;;;;23.27;18.03;;;6.70;99.90;;;;;;5037118;28;20450;-78
2023/02/20 07:42:59;;;;;;;22.83;17.17;;;6.70;99.90;;;;;;5036812;28;20430;-77
2023/02/20 07:45:26;;;;;;;23.20;15.80;;;6.70;99.90;;;;;;5037925;28;20935;-76
2023/02/20 07:47:53;;;;;;;21.70;17.33;;;6.70;99.90;;;;;;5037340;28;20920;-77
2023/02/20 07:50:20;;;;;;;24.83;16.23;;;6.70;99.90;;;;;;5036996;28;20431;-77
2023/02/20 07:52:48;;;;;;;25.33;16.83;;;6.80;99.90;;;;;;5036252;28;20470;-77
2023/02/20 07:55:16;;;;;;;22.13;16.47;;;6.80;99.90;;;;;;5036521;28;20446;-78
2023/02/20 07:57:46;;;;;;;25.53;15.73;;;6.90;99.90;;;;;;5036981;28;20820;-77
2023/02/20 08:00:15;;;;;;;23.77;15.43;;;6.90;99.90;;;;;;5036431;28;20457;-77
2023/02/20 08:02:43;;;;;;;20.30;13.50;;;6.90;99.90;;;;;;5038057;28;20947;-75
2023/02/20 08:05:11;;;;;;;20.30;14.63;;;7.00;99.90;;;;;;5038842;28;20446;-76
2023/02/20 08:07:50;;;;;;;24.37;13.57;;;7.00;99.90;;;;;;5017734;28;20553;-77
2023/02/20 08:10:19;;;;;;;19.57;13.87;;;6.90;99.90;;;;;;5016400;28;20435;-76
2023/02/20 08:12:46;;;;;;;20.07;14.80;;;6.90;99.90;;;;;;5017189;28;20478;-76
2023/02/20 08:15:13;;;;;;;19.20;14.60;;;6.90;99.90;;;;;;5016439;28;20436;-76
2023/02/20 08:17:41;;;;;;;20.47;14.47;;;6.90;99.90;;;;;;5016009;28;20491;-77
2023/02/20 08:20:09;;;;;;;28.63;14.23;;;6.90;99.90;;;;;;5015981;28;20542;-76
2023/02/20 08:22:35;;;;;;;26.23;15.37;;;6.80;99.90;;;;;;5016235;28;20530;-77
2023/02/20 08:25:11;;;;;;;23.43;14.07;;;6.90;99.90;;;;;;5015759;28;20991;-77
2023/02/20 08:27:42;;;;;;;21.07;14.40;;;6.90;99.90;;;;;;5016421;28;20455;-77
2023/02/20 08:30:12;;;;;;;20.07;14.10;;;6.90;99.90;;;;;;5016226;28;20780;-78
2023/02/20 08:32:39;;;;;;;18.80;12.50;;;6.90;99.90;;;;;;5015919;28;20504;-77
2023/02/20 08:35:08;;;;;;;18.80;12.57;;;6.90;99.90;;;;;;5016224;28;20431;-78
2023/02/20 08:37:34;;;;;;;22.30;12.90;;;6.90;99.90;;;;;;5015541;28;20988;-77
2023/02/20 08:40:05;;;;;;;17.43;12.67;;;6.90;99.90;;;;;;5015562;28;20783;-77
2023/02/20 08:42:33;;;;;;;18.50;12.40;;;7.00;99.90;;;;;;5015422;28;20783;-77
2023/02/20 08:45:04;;;;;;;17.87;12.77;;;7.00;99.90;;;;;;5016235;28;20489;-77
2023/02/20 08:47:31;;;;;;;17.13;13.23;;;7.00;99.90;;;;;;5015110;28;20808;-77
2023/02/20 08:49:58;;;;;;;23.10;14.30;;;7.10;99.90;;;;;;5015245;28;20432;-77
2023/02/20 08:52:24;;;;;;;19.60;11.73;;;7.10;99.90;;;;;;5015752;28;20468;-77
2023/02/20 08:54:51;;;;;;;21.30;12.60;;;7.20;99.90;;;;;;5015203;28;20439;-77
2023/02/20 08:57:18;;;;;;;19.07;12.70;;;7.30;99.90;;;;;;5014847;28;20482;-77
2023/02/20 08:59:46;;;;;;;20.33;12.13;;;7.30;99.90;;;;;;5015374;28;20451;-77
2023/02/20 09:02:16;;;;;;;16.90;12.80;;;7.30;99.90;;;;;;5015323;28;20458;-77
2023/02/20 09:04:44;;;;;;;20.67;12.60;;;7.30;99.90;;;;;;5014264;28;20439;-77
2023/02/20 09:07:11;;;;;;;17.53;12.20;;;7.40;99.90;;;;;;5014846;28;21007;-76
2023/02/20 09:09:38;;;;;;;15.80;11.50;;;7.40;99.90;;;;;;5014938;28;20440;-77
2023/02/20 09:12:07;;;;;;;26.23;13.13;;;7.40;99.90;;;;;;5014926;28;20879;-77
2023/02/20 09:14:34;;;;;;;14.87;10.50;;;7.50;99.90;;;;;;5014805;28;20444;-77
2023/02/20 09:17:02;;;;;;;18.00;11.87;;;7.60;99.90;;;;;;5014888;28;20483;-77
2023/02/20 09:19:29;;;;;;;28.50;14.07;;;7.70;99.90;;;;;;5014931;28;20450;-77
2023/02/20 09:21:56;;;;;;;19.63;12.43;;;7.70;99.90;;;;;;5015004;28;20455;-78
2023/02/20 09:24:23;;;;;;;18.53;12.03;;;7.80;99.90;;;;;;5014769;28;20431;-77
2023/02/20 09:26:50;;;;;;;22.60;12.50;;;7.80;99.90;;;;;;5014576;28;20487;-77
2023/02/20 09:29:16;;;;;;;20.03;13.00;;;7.70;99.90;;;;;;5014273;28;20959;-77
2023/02/20 09:31:43;;;;;;;17.13;12.67;;;7.80;99.90;;;;;;5014966;28;20823;-78
2023/02/20 09:34:11;;;;;;;21.83;14.17;;;7.80;99.90;;;;;;5014506;28;20922;-78
2023/02/20 09:36:38;;;;;;;17.37;12.17;;;7.80;99.90;;;;;;5014709;28;20482;-77
2023/02/20 09:39:05;;;;;;;15.37;12.90;;;7.80;99.90;;;;;;5014251;28;20931;-77
2023/02/20 09:41:45;;;;;;;18.07;12.83;;;7.90;99.90;;;;;;5014197;28;20946;-77
2023/02/20 09:44:18;;;;;;;22.30;12.40;;;7.90;99.90;;;;;;5015499;28;20447;-77
2023/02/20 09:46:48;;;;;;;17.97;12.70;;;7.90;99.90;;;;;;5014802;28;20486;-76
2023/02/20 09:49:20;;;;;;;19.93;12.30;;;7.90;99.90;;;;;;5014968;28;20451;-77
2023/02/20 09:51:52;;;;;;;20.53;13.07;;;8.10;99.90;;;;;;5014163;28;20432;-76
2023/02/20 09:54:26;;;;;;;20.83;13.43;;;8.00;99.90;;;;;;5014191;28;20442;-77
2023/02/20 09:56:57;;;;;;;23.40;13.27;;;8.00;99.90;;;;;;5013937;28;20995;-78
2023/02/20 09:59:28;;;;;;;23.23;12.00;;;8.00;99.90;;;;;;5014241;28;20439;-77
2023/02/20 10:01:59;;;;;;;18.50;12.00;;;8.10;99.90;;;;;;5014499;28;20439;-77
2023/02/20 10:04:33;;;;;;;21.90;12.20;;;8.00;99.90;;;;;;5014336;28;20474;-77
2023/02/20 10:07:13;;;;;;;18.80;12.40;;;8.10;99.90;;;;;;5013737;28;20483;-76
2023/02/20 10:09:40;;;;;;;19.20;12.27;;;8.10;99.90;;;;;;5014115;28;20444;-76
2023/02/20 10:12:16;;;;;;;18.47;13.30;;;8.10;99.90;;;;;;5013612;28;20467;-76
2023/02/20 10:15:03;;;;;;;19.60;12.27;;;8.20;99.90;;;;;;5014002;28;20446;-76
2023/02/20 10:17:37;;;;;;;20.93;12.00;;;8.30;99.90;;;;;;5013575;28;21004;-76
2023/02/20 10:20:13;;;;;;;16.20;10.97;;;8.30;99.90;;;;;;5013734;28;20919;-77
2023/02/20 10:22:49;;;;;;;13.37;10.60;;;8.30;99.90;;;;;;5013949;28;20451;-77
2023/02/20 10:25:21;;;;;;;16.43;11.33;;;8.40;99.90;;;;;;5013723;28;20439;-78
2023/02/20 10:27:53;;;;;;;16.07;11.57;;;8.30;99.90;;;;;;5013559;28;20920;-77
2023/02/20 10:30:26;;;;;;;14.80;10.30;;;8.40;99.90;;;;;;5013626;28;20982;-76
2023/02/20 10:32:58;;;;;;;16.87;10.63;;;8.40;99.90;;;;;;5014143;28;20479;-76
2023/02/20 10:35:34;;;;;;;14.57;11.60;;;8.40;99.90;;;;;;5013818;28;20440;-76
2023/02/20 10:38:07;;;;;;;15.03;11.33;;;8.40;99.90;;;;;;5014015;28;20923;-76
2023/02/20 10:40:39;;;;;;;15.00;10.93;;;8.40;99.90;;;;;;5014230;28;20439;-76
2023/02/20 10:43:14;;;;;;;16.30;11.77;;;8.40;99.90;;;;;;5014554;28;20447;-77
2023/02/20 10:45:54;;;;;;;18.50;11.60;;;8.40;99.90;;;;;;5020194;28;20482;-77
2023/02/20 10:48:31;;;;;;;15.97;9.97;;;8.50;99.90;;;;;;5021573;28;20415;-77
2023/02/20 10:51:09;;;;;;;21.10;12.47;;;8.50;99.90;;;;;;5025656;28;20953;-77
2023/02/20 10:53:43;;;;;;;16.10;11.80;;;8.60;99.90;;;;;;5020635;28;20990;-77
2023/02/20 10:56:14;;;;;;;15.40;10.97;;;8.60;99.90;;;;;;5023379;28;20470;-76
2023/02/20 10:58:47;;;;;;;17.40;11.57;;;8.60;99.90;;;;;;5024088;28;20442;-76
2023/02/20 11:01:19;;;;;;;14.03;11.27;;;8.60;99.90;;;;;;5025188;28;20458;-77
2023/02/20 11:03:52;;;;;;;14.53;11.43;;;8.60;99.90;;;;;;5038027;28;20455;-76
2023/02/20 11:06:23;;;;;;;17.27;11.27;;;8.50;99.90;;;;;;5025527;28;20494;-77
2023/02/20 11:08:50;;;;;;;12.70;10.67;;;8.60;99.90;;;;;;5017109;28;20446;-77
2023/02/20 11:11:22;;;;;;;15.43;12.00;;;8.50;99.90;;;;;;5022695;28;20459;-77
2023/02/20 11:13:49;;;;;;;19.60;10.83;;;8.50;99.90;;;;;;5022113;28;20474;-76
2023/02/20 11:16:25;;;;;;;18.13;11.27;;;8.60;99.90;;;;;;5022760;28;20463;-76
2023/02/20 11:19:01;;;;;;;19.00;11.63;;;8.60;99.90;;;;;;5021730;28;20926;-77
2023/02/20 11:21:45;;;;;;;17.83;11.33;;;8.70;99.90;;;;;;5020552;28;20442;-77
2023/02/20 11:24:28;;;;;;;17.97;12.13;;;8.70;99.90;;;;;;5019433;28;20427;-78
2023/02/20 11:27:09;;;;;;;17.40;11.73;;;8.60;99.90;;;;;;5022090;28;20471;-77
2023/02/20 11:29:43;;;;;;;14.80;12.27;;;8.70;99.90;;;;;;5030831;28;20442;-76
2023/02/20 11:32:35;;;;;;;29.10;12.73;;;8.70;99.90;;;;;;5032328;28;20437;-76
2023/02/20 11:35:19;;;;;;;16.30;11.27;;;8.70;99.90;;;;;;5027142;28;20431;-76
2023/02/20 11:37:49;;;;;;;21.80;14.23;;;8.70;99.90;;;;;;5024060;28;20494;-77
2023/02/20 11:40:21;;;;;;;14.67;12.20;;;8.60;99.90;;;;;;5025787;28;20438;-76
2023/02/20 11:42:48;;;;;;;16.63;12.17;;;8.70;99.90;;;;;;5025510;28;20424;-76
2023/02/20 11:45:22;;;;;;;20.73;11.97;;;8.70;99.90;;;;;;5026394;28;20478;-75
2023/02/20 11:48:07;;;;;;;21.50;12.57;;;8.60;99.90;;;;;;5023392;28;20451;-76
2023/02/20 11:50:39;;;;;;;18.20;12.00;;;8.70;99.90;;;;;;5022713;28;20511;-77
2023/02/20 11:53:17;;;;;;;19.77;12.77;;;8.70;99.90;;;;;;5024594;28;20823;-77
2023/02/20 11:56:09;;;;;;;18.67;13.03;;;8.80;99.90;;;;;;5023856;28;20514;-76
2023/02/20 11:58:37;;;;;;;17.20;12.00;;;8.90;99.90;;;;;;5021225;28;20412;-77
2023/02/20 12:01:05;;;;;;;18.57;11.57;;;9.00;99.90;;;;;;5022832;28;20455;-77
2023/02/20 12:03:33;;;;;;;16.50;11.80;;;8.90;99.90;;;;;;5021234;28;20943;-77
2023/02/20 12:06:02;;;;;;;14.10;12.60;;;9.00;99.90;;;;;;5020861;28;20486;-77
2023/02/20 12:08:41;;;;;;;17.63;11.80;;;8.90;99.90;;;;;;5020361;28;20471;-78
2023/02/20 12:11:10;;;;;;;16.77;12.63;;;8.80;99.90;;;;;;5020231;28;20446;-77
2023/02/20 12:13:39;;;;;;;20.00;11.50;;;8.80;99.90;;;;;;5018959;28;20472;-78
2023/02/20 12:16:32;;;;;;;18.40;12.67;;;8.80;99.90;;;;;;5019600;28;20473;-77
2023/02/20 12:19:08;;;;;;;21.33;12.00;;;8.90;99.90;;;;;;5021804;28;20439;-78
2023/02/20 12:21:46;;;;;;;17.13;12.37;;;8.90;99.90;;;;;;5020032;28;20935;-78
2023/02/20 12:24:29;;;;;;;16.33;12.23;;;8.80;99.90;;;;;;5021189;28;20805;-77
2023/02/20 12:26:59;;;;;;;19.53;12.87;;;8.70;99.90;;;;;;5019337;28;20479;-77
2023/02/20 12:29:46;;;;;;;20.33;12.30;;;8.70;99.90;;;;;;5019507;28;20439;-77
2023/02/20 12:32:29;;;;;;;20.30;14.20;;;8.70;99.90;;;;;;5018978;28;20430;-77
2023/02/20 12:35:24;;;;;;;16.80;14.20;;;8.70;99.90;;;;;;5020688;28;20424;-77
2023/02/20 12:38:03;;;;;;;15.73;13.50;;;8.80;99.90;;;;;;5019754;28;20444;-78
2023/02/20 12:40:52;;;;;;;18.80;12.43;;;8.80;99.90;;;;;;5019972;28;20432;-77
2023/02/20 12:43:30;;;;;;;24.03;12.93;;;8.80;99.90;;;;;;5019649;28;20443;-78
2023/02/20 12:46:06;;;;;;;19.37;12.47;;;8.80;99.90;;;;;;5017976;28;20471;-78
2023/02/20 12:48:46;;;;;;;16.10;10.10;;;8.80;99.90;;;;;;5016138;28;20439;-77
2023/02/20 12:51:29;;;;;;;17.00;13.37;;;8.80;99.90;;;;;;5020044;28;20453;-77
2023/02/20 12:54:16;;;;;;;23.67;14.23;;;8.70;99.90;;;;;;5019111;28;20558;-78
2023/02/20 12:57:04;;;;;;;18.07;11.73;;;8.60;99.90;;;;;;5017311;28;20475;-78
2023/02/20 12:59:39;;;;;;;17.57;12.53;;;8.60;99.90;;;;;;5020799;28;20436;-78
2023/02/20 13:02:20;;;;;;;22.57;12.53;;;8.60;99.90;;;;;;5019206;28;20467;-77
2023/02/20 13:04:53;;;;;;;18.90;13.20;;;8.60;99.90;;;;;;5018638;28;20432;-78
2023/02/20 13:07:25;;;;;;;20.63;13.07;;;8.60;99.90;;;;;;5016574;28;20494;-77
2023/02/20 13:10:01;;;;;;;20.97;13.13;;;8.60;99.90;;;;;;5026840;28;20830;-78
2023/02/20 13:12:30;;;;;;;22.27;13.07;;;8.60;99.90;;;;;;5026660;28;20514;-77
2023/02/20 13:15:07;;;;;;;21.20;12.60;;;8.70;99.90;;;;;;5020541;28;20483;-78
2023/02/20 13:17:40;;;;;;;17.13;11.97;;;8.70;99.90;;;;;;5016559;28;20480;-78